createdAt,value
2019-03-15T00:01:35.657Z,1.37
2019-03-15T00:04:04.565Z,1.35
2019-03-15T00:06:33.246Z,1.55
2019-03-15T00:09:01.817Z,1.72
2019-03-15T00:11:30.421Z,1.22
2019-03-15T00:13:59.059Z,1.10
2019-03-15T00:16:27.750Z,1.92
2019-03-15T00:18:56.328Z,1.07
2019-03-15T00:21:48.113Z,1.32
2019-03-15T00:26:44.533Z,1.90
2019-03-15T00:29:13.115Z,1.52
2019-03-15T00:31:41.709Z,1.50
2019-03-15T00:34:10.292Z,1.25
2019-03-15T00:36:38.913Z,1.02
2019-03-15T00:39:07.561Z,1.80
2019-03-15T00:41:36.174Z,1.52
2019-03-15T00:44:04.891Z,2.17
2019-03-15T00:46:33.505Z,1.02
2019-03-15T00:49:02.075Z,1.30
2019-03-15T00:51:30.676Z,1.37
2019-03-15T00:53:59.258Z,1.47
2019-03-15T00:56:27.849Z,1.17
2019-03-15T00:58:56.495Z,2.12
2019-03-15T01:01:25.176Z,1.35
2019-03-15T01:03:53.753Z,2.22
2019-03-15T01:06:22.417Z,1.42
2019-03-15T01:08:50.991Z,1.47
2019-03-15T01:11:22.402Z,1.40
2019-03-15T01:13:51.001Z,1.35
2019-03-15T01:16:19.754Z,1.10
2019-03-15T01:18:48.307Z,1.25
2019-03-15T01:21:16.933Z,1.37
2019-03-15T01:23:45.503Z,1.25
2019-03-15T01:26:14.065Z,1.65
2019-03-15T01:28:42.696Z,1.20
2019-03-15T01:31:11.263Z,1.67
2019-03-15T01:33:39.862Z,1.22
2019-03-15T01:36:08.437Z,1.37
2019-03-15T01:38:37.045Z,1.92
2019-03-15T01:41:05.626Z,1.37
2019-03-15T01:43:34.290Z,3.17
2019-03-15T01:46:02.914Z,1.32
2019-03-15T01:48:31.546Z,1.25
2019-03-15T01:51:00.213Z,1.47
2019-03-15T01:53:28.804Z,1.12
2019-03-15T01:55:57.370Z,1.35
2019-03-15T01:58:26.034Z,1.75
2019-03-15T02:00:54.605Z,1.22
2019-03-15T02:03:23.238Z,1.32
2019-03-15T02:05:51.868Z,1.98
2019-03-15T02:08:20.674Z,1.12
2019-03-15T02:10:49.310Z,1.60
2019-03-15T02:13:17.910Z,1.52
2019-03-15T02:15:46.652Z,1.17
2019-03-15T02:18:15.236Z,1.12
2019-03-15T02:20:43.821Z,1.20
2019-03-15T02:23:12.482Z,1.52
2019-03-15T02:25:41.118Z,1.00
2019-03-15T02:28:09.701Z,1.25
2019-03-15T02:30:38.296Z,1.05
2019-03-15T02:33:06.890Z,1.82
2019-03-15T02:35:35.457Z,1.22
2019-03-15T02:38:04.057Z,1.62
2019-03-15T02:40:32.685Z,1.45
2019-03-15T02:43:01.278Z,1.57
2019-03-15T02:45:29.853Z,0.93
2019-03-15T02:47:58.535Z,1.00
2019-03-15T02:50:27.120Z,1.07
2019-03-15T02:52:55.716Z,1.55
2019-03-15T02:55:24.292Z,1.77
2019-03-15T02:57:52.904Z,1.67
2019-03-15T03:00:21.521Z,1.25
2019-03-15T03:02:50.213Z,1.05
2019-03-15T03:05:18.853Z,0.80
2019-03-15T03:07:48.224Z,1.32
2019-03-15T03:10:17.094Z,1.50
2019-03-15T03:12:45.751Z,1.25
2019-03-15T03:15:14.394Z,1.20
2019-03-15T03:17:43.152Z,1.77
2019-03-15T03:20:11.718Z,1.27
2019-03-15T03:22:40.530Z,1.22
2019-03-15T03:25:09.248Z,1.02
2019-03-15T03:27:37.971Z,0.70
2019-03-15T03:30:09.275Z,1.57
2019-03-15T03:32:37.954Z,1.62
2019-03-15T03:35:09.529Z,1.47
2019-03-15T03:37:37.361Z,1.30
2019-03-15T03:40:07.619Z,0.70
2019-03-15T03:42:36.282Z,2.15
2019-03-15T03:45:07.717Z,1.87
2019-03-15T03:47:36.282Z,1.15
2019-03-15T03:50:07.702Z,1.17
2019-03-15T03:52:36.307Z,2.22
2019-03-15T03:55:06.499Z,1.37
2019-03-15T03:57:36.520Z,1.55
2019-03-15T04:00:15.541Z,1.10
2019-03-15T04:02:44.318Z,1.40
2019-03-15T04:05:13.118Z,1.60
2019-03-15T04:07:41.792Z,1.00
2019-03-15T04:10:11.922Z,1.25
2019-03-15T04:12:40.543Z,1.98
2019-03-15T04:15:10.874Z,1.62
2019-03-15T04:17:39.450Z,0.82
2019-03-15T04:20:10.282Z,1.82
2019-03-15T04:22:38.870Z,1.05
2019-03-15T04:25:11.357Z,1.57
2019-03-15T04:27:39.921Z,1.40
2019-03-15T04:30:11.606Z,1.00
2019-03-15T04:32:40.169Z,1.20
2019-03-15T04:35:09.011Z,1.67
2019-03-15T04:37:37.589Z,1.40
2019-03-15T04:40:12.539Z,1.30
2019-03-15T04:42:41.199Z,1.27
2019-03-15T04:45:09.818Z,1.07
2019-03-15T04:47:38.390Z,1.25
2019-03-15T04:50:08.030Z,1.42
2019-03-15T04:52:36.675Z,0.60
2019-03-15T04:55:06.540Z,0.88
2019-03-15T04:57:36.909Z,1.00
2019-03-15T05:00:08.580Z,2.12
2019-03-15T05:02:37.230Z,0.90
2019-03-15T05:05:06.805Z,1.75
2019-03-15T05:07:35.450Z,1.60
2019-03-15T05:10:06.743Z,1.10
2019-03-15T05:12:35.322Z,0.98
2019-03-15T05:15:05.484Z,1.27
2019-03-15T05:17:34.142Z,0.90
2019-03-15T05:20:03.085Z,1.05
2019-03-15T05:22:31.727Z,1.75
2019-03-15T05:25:00.384Z,1.00
2019-03-15T05:27:29.061Z,1.42
2019-03-15T05:29:57.669Z,1.35
2019-03-15T05:32:26.245Z,1.35
2019-03-15T05:34:54.914Z,0.90
2019-03-15T05:37:23.648Z,0.93
2019-03-15T05:39:55.620Z,1.50
2019-03-15T05:42:24.198Z,0.80
2019-03-15T05:44:53.004Z,1.50
2019-03-15T05:47:21.671Z,1.12
2019-03-15T05:49:50.341Z,2.00
2019-03-15T05:52:18.926Z,1.42
2019-03-15T05:54:47.500Z,1.35
2019-03-15T05:57:16.141Z,1.27
2019-03-15T05:59:44.702Z,0.62
2019-03-15T06:02:13.302Z,0.70
2019-03-15T06:04:41.862Z,1.17
2019-03-15T06:07:10.538Z,1.12
2019-03-15T06:09:39.194Z,1.50
2019-03-15T06:12:07.790Z,1.40
2019-03-15T06:14:36.417Z,1.22
2019-03-15T06:17:05.099Z,1.37
2019-03-15T06:19:33.667Z,1.35
2019-03-15T06:22:02.325Z,1.32
2019-03-15T06:24:30.928Z,1.40
2019-03-15T06:26:59.593Z,1.57
2019-03-15T06:29:28.187Z,1.30
2019-03-15T06:31:56.851Z,1.10
2019-03-15T06:34:25.448Z,1.27
2019-03-15T06:36:54.038Z,1.25
2019-03-15T06:39:22.622Z,1.60
2019-03-15T06:41:51.204Z,1.22
2019-03-15T06:44:19.798Z,1.32
2019-03-15T06:46:48.430Z,1.07
2019-03-15T06:49:16.995Z,1.07
2019-03-15T06:51:45.597Z,1.37
2019-03-15T06:54:14.182Z,1.85
2019-03-15T06:56:42.781Z,1.05
2019-03-15T06:59:11.397Z,1.22
2019-03-15T07:01:39.963Z,1.57
2019-03-15T07:04:08.529Z,2.00
2019-03-15T07:06:37.135Z,1.32
2019-03-15T07:09:07.406Z,1.22
2019-03-15T07:11:36.167Z,1.25
2019-03-15T07:14:04.884Z,2.02
2019-03-15T07:16:33.551Z,1.85
2019-03-15T07:19:03.169Z,1.00
2019-03-15T07:21:31.965Z,1.15
2019-03-15T07:24:00.574Z,1.47
2019-03-15T07:26:29.170Z,1.55
2019-03-15T07:28:57.805Z,1.55
2019-03-15T07:31:26.470Z,1.12
2019-03-15T07:33:55.154Z,1.65
2019-03-15T07:36:23.722Z,1.60
2019-03-15T07:38:52.322Z,1.30
2019-03-15T07:41:20.890Z,1.25
2019-03-15T07:43:49.487Z,1.45
2019-03-15T07:46:18.166Z,1.05
2019-03-15T07:48:46.757Z,1.85
2019-03-15T07:51:15.331Z,1.12
2019-03-15T07:53:43.940Z,1.87
2019-03-15T07:56:12.509Z,1.15
2019-03-15T07:58:41.106Z,1.80
2019-03-15T08:01:09.750Z,1.70
2019-03-15T08:03:38.353Z,1.92
2019-03-15T08:06:07.000Z,1.62
2019-03-15T08:08:35.794Z,1.17
2019-03-15T08:11:04.512Z,1.17
2019-03-15T08:13:33.180Z,1.35
2019-03-15T08:16:01.951Z,1.65
2019-03-15T08:18:30.549Z,1.27
2019-03-15T08:20:59.133Z,1.25
2019-03-15T08:23:27.738Z,1.20
2019-03-15T08:25:56.385Z,1.27
2019-03-15T08:28:26.743Z,1.65
2019-03-15T08:30:55.399Z,1.70
2019-03-15T08:33:24.002Z,1.70
2019-03-15T08:35:52.573Z,1.75
2019-03-15T08:38:21.165Z,1.10
2019-03-15T08:40:49.737Z,1.15
2019-03-15T08:43:18.337Z,1.47
2019-03-15T08:45:46.908Z,1.50
2019-03-15T08:48:15.517Z,1.42
2019-03-15T08:50:45.050Z,1.20
2019-03-15T08:53:13.710Z,1.00
2019-03-15T08:55:42.323Z,1.32
2019-03-15T08:58:14.577Z,2.15
2019-03-15T09:00:41.206Z,1.20
2019-03-15T09:03:09.815Z,1.35
2019-03-15T09:05:38.374Z,1.85
2019-03-15T09:08:06.978Z,1.10
2019-03-15T09:10:35.561Z,1.45
2019-03-15T09:13:04.215Z,1.40
2019-03-15T09:15:32.785Z,1.50
2019-03-15T09:18:01.395Z,1.37
2019-03-15T09:20:30.730Z,1.10
2019-03-15T09:22:59.547Z,0.78
2019-03-15T09:25:28.101Z,2.05
2019-03-15T09:27:56.674Z,1.30
2019-03-15T09:30:25.330Z,1.85
2019-03-15T09:32:53.912Z,1.52
2019-03-15T09:35:22.581Z,0.95
2019-03-15T09:37:51.289Z,0.90
2019-03-15T09:40:19.882Z,1.17
2019-03-15T09:42:48.469Z,1.02
2019-03-15T09:45:18.301Z,1.12
2019-03-15T09:47:47.162Z,1.80
2019-03-15T09:50:26.584Z,1.47
2019-03-15T09:52:48.996Z,1.20
2019-03-15T09:55:17.318Z,1.70
2019-03-15T09:57:46.058Z,1.67
2019-03-15T10:00:19.430Z,1.30
2019-03-15T10:02:48.011Z,1.57
2019-03-15T10:05:16.774Z,1.55
2019-03-15T10:07:45.857Z,1.05
2019-03-15T10:10:18.858Z,1.60
2019-03-15T10:12:48.054Z,1.32
2019-03-15T10:15:17.483Z,1.25
2019-03-15T10:17:46.398Z,0.90
2019-03-15T10:20:15.954Z,1.35
2019-03-15T10:22:44.605Z,1.47
2019-03-15T10:25:17.049Z,1.07
2019-03-15T10:27:45.630Z,1.40
2019-03-15T10:30:19.137Z,1.50
2019-03-15T10:32:47.747Z,1.25
2019-03-15T10:35:16.538Z,1.67
2019-03-15T10:37:45.308Z,0.98
2019-03-15T10:40:22.883Z,1.72
2019-03-15T10:42:51.471Z,1.40
2019-03-15T10:45:20.186Z,1.20
2019-03-15T10:47:48.771Z,0.90
2019-03-15T10:50:20.904Z,1.02
2019-03-15T10:52:49.653Z,1.42
2019-03-15T10:55:20.656Z,1.52
2019-03-15T10:57:48.642Z,1.52
2019-03-15T11:00:19.710Z,1.02
2019-03-15T11:02:48.613Z,1.80
2019-03-15T11:05:17.341Z,1.50
2019-03-15T11:07:45.976Z,1.95
2019-03-15T11:10:15.513Z,1.32
2019-03-15T11:12:44.083Z,1.35
2019-03-15T11:15:14.325Z,2.30
2019-03-15T11:17:42.921Z,1.50
2019-03-15T11:20:13.328Z,1.32
2019-03-15T11:22:41.985Z,0.90
2019-03-15T11:25:12.572Z,1.30
2019-03-15T11:27:41.226Z,1.00
2019-03-15T11:30:11.887Z,1.57
2019-03-15T11:32:40.643Z,1.43
2019-03-15T11:35:10.086Z,1.72
2019-03-15T11:37:38.764Z,1.30
2019-03-15T11:40:14.766Z,1.77
2019-03-15T11:42:43.494Z,2.10
2019-03-15T11:45:14.085Z,1.37
2019-03-15T11:48:01.279Z,1.30
2019-03-15T11:50:17.844Z,1.87
2019-03-15T11:52:46.425Z,1.17
2019-03-15T11:55:15.103Z,1.20
2019-03-15T11:57:43.670Z,0.88
2019-03-15T12:00:16.822Z,2.08
2019-03-15T12:02:45.467Z,0.82
2019-03-15T12:05:14.397Z,1.50
2019-03-15T12:07:43.150Z,1.00
2019-03-15T12:10:15.770Z,1.20
2019-03-15T12:12:44.422Z,1.37
2019-03-15T12:15:20.535Z,1.72
2019-03-15T12:17:49.103Z,1.10
2019-03-15T12:20:19.772Z,1.42
2019-03-15T12:22:48.046Z,0.90
2019-03-15T12:25:16.656Z,2.10
2019-03-15T12:27:45.293Z,0.93
2019-03-15T12:30:16.019Z,1.37
2019-03-15T12:32:44.906Z,0.83
2019-03-15T12:35:14.353Z,1.25
2019-03-15T12:37:42.998Z,1.95
2019-03-15T12:40:14.094Z,1.52
2019-03-15T12:42:42.746Z,1.05
2019-03-15T12:45:12.277Z,1.57
2019-03-15T12:47:40.932Z,0.72
2019-03-15T12:50:10.988Z,1.52
2019-03-15T12:52:47.024Z,0.82
2019-03-15T12:55:13.875Z,1.22
2019-03-15T12:57:42.520Z,1.15
2019-03-15T13:00:13.910Z,1.05
2019-03-15T13:02:42.503Z,0.72
2019-03-15T13:05:11.530Z,1.67
2019-03-15T13:07:40.174Z,1.40
2019-03-15T13:10:17.154Z,2.05
2019-03-15T13:12:45.753Z,0.93
2019-03-15T13:15:15.582Z,1.05
2019-03-15T13:17:44.252Z,1.00
2019-03-15T13:20:14.430Z,1.12
2019-03-15T13:22:43.003Z,1.85
2019-03-15T13:25:13.813Z,1.00
2019-03-15T13:27:42.425Z,1.55
2019-03-15T13:30:14.138Z,0.90
2019-03-15T13:32:42.736Z,1.00
2019-03-15T13:35:11.832Z,0.80
2019-03-15T13:37:42.856Z,1.35
2019-03-15T13:40:18.814Z,1.82
2019-03-15T13:42:47.511Z,0.85
2019-03-15T13:45:16.710Z,1.27
2019-03-15T13:47:45.439Z,1.67
2019-03-15T13:50:20.176Z,1.17
2019-03-15T13:52:48.843Z,1.37
2019-03-15T13:55:17.494Z,1.12
2019-03-15T13:57:46.171Z,1.02
2019-03-15T14:00:16.285Z,1.40
2019-03-15T14:02:44.920Z,1.52
2019-03-15T14:05:16.412Z,1.50
2019-03-15T14:07:45.013Z,1.40
2019-03-15T14:10:14.841Z,1.62
2019-03-15T14:12:43.501Z,1.12
2019-03-15T14:15:13.445Z,1.17
2019-03-15T14:17:42.514Z,1.10
2019-03-15T14:20:12.603Z,1.40
2019-03-15T14:22:41.619Z,1.30
2019-03-15T14:25:21.797Z,1.37
2019-03-15T14:27:50.529Z,1.17
2019-03-15T14:30:19.113Z,1.45
2019-03-15T14:33:04.119Z,1.07
2019-03-15T14:35:32.698Z,1.05
2019-03-15T14:38:01.536Z,1.60
2019-03-15T14:40:30.423Z,0.78
2019-03-15T14:42:59.624Z,1.10
2019-03-15T14:45:28.259Z,1.30
2019-03-15T14:47:56.925Z,0.93
2019-03-15T14:50:25.534Z,1.05
2019-03-15T14:52:54.252Z,1.00
2019-03-15T14:55:22.822Z,1.35
2019-03-15T14:57:53.214Z,1.50
2019-03-15T15:00:21.894Z,1.35
2019-03-15T15:02:50.499Z,1.15
2019-03-15T15:05:19.144Z,1.35
2019-03-15T15:07:47.733Z,1.10
2019-03-15T15:10:17.250Z,1.37
2019-03-15T15:12:45.935Z,1.20
2019-03-15T15:15:19.297Z,1.17
2019-03-15T15:17:47.963Z,1.47
2019-03-15T15:20:16.801Z,1.77
2019-03-15T15:22:45.544Z,1.10
2019-03-15T15:25:15.433Z,0.90
2019-03-15T15:27:44.322Z,1.12
2019-03-15T15:30:14.329Z,1.72
2019-03-15T15:32:42.917Z,1.22
2019-03-15T15:35:12.440Z,1.35
2019-03-15T15:37:41.149Z,1.30
2019-03-15T15:40:11.941Z,1.45
2019-03-15T15:42:40.642Z,0.93
2019-03-15T15:45:11.302Z,1.27
2019-03-15T15:47:39.895Z,1.33
2019-03-15T15:50:15.563Z,1.55
2019-03-15T15:52:44.937Z,1.30
2019-03-15T15:55:17.548Z,1.30
2019-03-15T15:57:46.148Z,2.80
2019-03-15T16:00:18.503Z,1.05
2019-03-15T16:02:47.193Z,2.10
2019-03-15T16:05:16.067Z,1.72
2019-03-15T16:07:58.806Z,0.93
2019-03-15T16:10:27.463Z,1.37
2019-03-15T16:12:56.046Z,1.25
2019-03-15T16:15:24.707Z,1.22
2019-03-15T16:17:53.443Z,1.30
2019-03-15T16:20:22.029Z,1.10
2019-03-15T16:22:52.248Z,1.40
2019-03-15T16:25:22.500Z,3.05
2019-03-15T16:27:51.090Z,1.52
2019-03-15T16:30:20.803Z,1.22
2019-03-15T16:32:49.471Z,1.22
2019-03-15T16:35:18.110Z,1.00
2019-03-15T16:37:46.782Z,1.10
2019-03-15T16:40:16.105Z,1.05
2019-03-15T16:42:44.705Z,1.42
2019-03-15T16:45:16.170Z,1.75
2019-03-15T16:47:44.821Z,1.05
2019-03-15T16:50:13.852Z,1.82
2019-03-15T16:52:44.449Z,1.10
2019-03-15T16:55:15.130Z,1.07
2019-03-15T16:57:43.705Z,1.35
2019-03-15T17:00:16.309Z,1.95
2019-03-15T17:02:45.070Z,1.02
2019-03-15T17:05:42.933Z,4.53
2019-03-15T17:08:11.533Z,2.83
2019-03-15T17:10:40.110Z,4.10
2019-03-15T17:13:08.775Z,3.22
2019-03-15T17:15:37.460Z,2.42
2019-03-15T17:18:06.211Z,3.95
2019-03-15T17:20:34.769Z,4.75
2019-03-15T17:23:03.366Z,3.50
2019-03-15T17:25:31.930Z,3.12
2019-03-15T17:28:00.551Z,2.75
2019-03-15T17:30:33.014Z,3.65
2019-03-15T17:33:06.195Z,4.10
2019-03-15T17:35:44.147Z,4.55
2019-03-15T17:38:14.061Z,4.03
2019-03-15T17:40:42.675Z,4.47
2019-03-15T17:43:12.013Z,5.95
2019-03-15T17:45:45.807Z,3.85
2019-03-15T17:48:15.054Z,4.50
2019-03-15T17:50:43.851Z,4.20
2019-03-15T17:53:13.377Z,2.75
2019-03-15T17:55:42.092Z,2.75
2019-03-15T17:58:10.690Z,2.65
2019-03-15T18:00:44.473Z,3.10
2019-03-15T18:03:20.523Z,3.50
2019-03-15T18:05:43.790Z,3.62
2019-03-15T18:08:12.546Z,5.35
2019-03-15T18:10:41.179Z,2.83
2019-03-15T18:13:09.919Z,5.05
2019-03-15T18:15:38.518Z,2.77
2019-03-15T18:18:07.181Z,3.00
2019-03-15T18:20:35.891Z,2.98
2019-03-15T18:23:04.564Z,4.67
2019-03-15T18:25:33.130Z,2.55
2019-03-15T18:28:01.689Z,2.50
2019-03-15T18:30:42.442Z,3.47
2019-03-15T18:33:11.065Z,4.37
2019-03-15T18:35:39.637Z,2.98
2019-03-15T18:38:08.272Z,4.20
2019-03-15T18:40:36.859Z,2.70
2019-03-15T18:43:05.429Z,2.95
2019-03-15T18:45:34.249Z,2.60
2019-03-15T18:48:02.822Z,3.08
2019-03-15T18:50:31.425Z,2.20
2019-03-15T18:52:59.993Z,4.33
2019-03-15T18:55:28.663Z,2.45
2019-03-15T18:57:57.296Z,2.42
2019-03-15T19:00:26.156Z,2.65
2019-03-15T19:02:54.805Z,3.10
2019-03-15T19:05:23.395Z,2.40
2019-03-15T19:07:51.971Z,2.37
2019-03-15T19:10:20.730Z,2.42
2019-03-15T19:12:49.378Z,2.20
2019-03-15T19:15:20.357Z,5.15
2019-03-15T19:17:50.899Z,3.52
2019-03-15T19:20:20.374Z,2.50
2019-03-15T19:22:48.933Z,2.40
2019-03-15T19:25:17.617Z,3.25
2019-03-15T19:27:46.191Z,3.22
2019-03-15T19:30:15.816Z,3.42
2019-03-15T19:32:44.850Z,3.10
2019-03-15T19:35:13.706Z,3.45
2019-03-15T19:37:42.459Z,2.47
2019-03-15T19:40:28.955Z,3.27
2019-03-15T19:42:58.848Z,1.90
2019-03-15T19:46:23.038Z,3.15
2019-03-15T19:48:52.904Z,2.37
2019-03-15T19:51:21.494Z,2.15
2019-03-15T19:53:50.073Z,2.65
2019-03-15T19:56:18.678Z,3.37
2019-03-15T19:58:47.257Z,3.22
2019-03-15T20:01:15.925Z,2.30
2019-03-15T20:03:44.830Z,2.15
2019-03-15T20:06:14.905Z,2.30
2019-03-15T20:08:43.538Z,2.08
2019-03-15T20:11:12.141Z,2.35
2019-03-15T20:13:40.725Z,2.60
2019-03-15T20:16:09.317Z,2.05
2019-03-15T20:18:38.491Z,2.77
2019-03-15T20:21:44.777Z,2.08
2019-03-15T20:24:13.342Z,2.17
2019-03-15T20:26:41.945Z,1.45
2019-03-15T20:29:10.515Z,2.50
2019-03-15T20:31:39.144Z,2.12
2019-03-15T20:34:07.902Z,3.27
2019-03-15T20:36:36.574Z,2.47
2019-03-15T20:39:19.156Z,2.92
2019-03-15T20:41:48.970Z,2.10
2019-03-15T20:44:27.868Z,2.08
2019-03-15T20:46:48.348Z,3.53
2019-03-15T20:49:16.923Z,2.22
2019-03-15T20:51:45.562Z,2.58
2019-03-15T20:54:14.104Z,2.47
2019-03-15T20:56:42.701Z,2.40
2019-03-15T20:59:11.275Z,3.55
2019-03-15T21:01:39.894Z,4.40
2019-03-15T21:04:08.574Z,2.30
2019-03-15T21:06:37.216Z,2.27
2019-03-15T21:09:07.440Z,2.22
2019-03-15T21:11:36.115Z,2.83
2019-03-15T21:14:05.029Z,2.45
2019-03-15T21:16:33.627Z,2.75
2019-03-15T21:19:02.220Z,2.12
2019-03-15T21:21:30.798Z,3.10
2019-03-15T21:23:59.385Z,2.92
2019-03-15T21:26:28.062Z,2.47
2019-03-15T21:28:56.708Z,2.00
2019-03-15T21:31:25.374Z,2.30
2019-03-15T21:33:53.957Z,3.12
2019-03-15T21:36:22.594Z,2.27
2019-03-15T21:38:51.287Z,3.37
2019-03-15T21:41:19.878Z,2.40
2019-03-15T21:43:48.470Z,2.22
2019-03-15T21:46:17.133Z,2.52
2019-03-15T21:48:46.110Z,2.72
2019-03-15T21:51:14.897Z,2.08
2019-03-15T21:53:44.565Z,2.50
2019-03-15T21:56:13.193Z,1.75
2019-03-15T21:58:41.802Z,1.67
2019-03-15T22:01:10.367Z,2.67
2019-03-15T22:03:45.070Z,1.92
2019-03-15T22:06:13.617Z,2.60
2019-03-15T22:08:42.205Z,2.00
2019-03-15T22:11:20.610Z,2.87
2019-03-15T22:13:41.043Z,2.35
2019-03-15T22:16:09.619Z,2.60
2019-03-15T22:18:38.216Z,2.42
2019-03-15T22:21:06.863Z,2.10
2019-03-15T22:23:35.462Z,2.45
2019-03-15T22:26:04.189Z,2.12
2019-03-15T22:28:32.773Z,1.80
2019-03-15T22:31:01.349Z,2.17
2019-03-15T22:33:29.953Z,2.75
2019-03-15T22:35:58.527Z,4.17
2019-03-15T22:38:27.134Z,2.17
2019-03-15T22:40:55.774Z,2.37
2019-03-15T22:43:24.362Z,2.02
2019-03-15T22:45:52.917Z,2.02
2019-03-15T22:48:21.691Z,3.02
2019-03-15T22:50:50.253Z,3.42
2019-03-15T22:53:20.888Z,1.75
2019-03-15T22:55:49.051Z,2.22
2019-03-15T22:58:17.651Z,2.20
2019-03-15T23:00:47.084Z,2.33
2019-03-15T23:03:15.703Z,2.12
2019-03-15T23:05:44.261Z,2.40
2019-03-15T23:08:12.933Z,2.50
2019-03-15T23:10:41.577Z,2.22
2019-03-15T23:13:10.168Z,1.75
2019-03-15T23:15:38.810Z,2.47
2019-03-15T23:18:07.474Z,2.52
2019-03-15T23:20:36.054Z,3.20
2019-03-15T23:23:04.901Z,2.05
2019-03-15T23:25:33.558Z,2.50
2019-03-15T23:28:02.257Z,1.62
2019-03-15T23:30:30.835Z,2.12
2019-03-15T23:32:59.449Z,3.10
2019-03-15T23:35:28.009Z,2.33
2019-03-15T23:37:56.592Z,1.95
2019-03-15T23:40:25.238Z,2.17
2019-03-15T23:42:53.857Z,2.05
2019-03-15T23:45:22.731Z,2.42
2019-03-15T23:47:51.301Z,2.05
2019-03-15T23:50:19.998Z,1.70
2019-03-15T23:52:48.529Z,2.15
2019-03-15T23:55:17.117Z,3.22
2019-03-15T23:57:45.689Z,2.22
